Terminal Aerodrome Forecast
Issued by NWS Cleveland, OH

Home | Current Version | Previous Version | Text Only | Print | Product List | Glossary Off
Versions: 1 2 3 4 5 6 7 8 9 10 11 12 13 14 15 16 17 18 19 20 21 22 23

000
FTUS41 KCLE 250819 AAA
TAFCAK
TAF AMD
KCAK 250819Z 2508/2606 23012KT P6SM -RA BKN015 OVC060
      TEMPO 2508/2509 3SM -RA BKN006
     FM250900 23012KT P6SM SCT015 BKN060
      TEMPO 2509/2511 BKN015
     FM251400 24015G25KT 6SM -SHSN BKN025
     FM252300 28015G23KT P6SM OVC020=

USA.gov is the U.S. government's official web portal to all federal, state and local government web resources and services.